RYR34BB EPMO-LIRA
Flight info
| Callsign | RYR34BB |
|---|---|
| Flight time | N/A |
| Altitude | 36000 |
| Route | EVINA3J EVINA Z175 SKARY DCT KOPRY DCT ZDA DCT ELGUS DCT XAMIT/N0439F370 DCT ESODU DCT ASPIR DCT MOPUV MOPUV1F |
| Aircraft | B738/M-SDE2E3FGHIRWXY/LB1 |
Departure
| Time | 2026-05-06 11:10 |
|---|---|
| Airport | Warsaw Modlin Airport (EPMO) |
Arrival
| Time | N/A |
|---|---|
| Airport | Ciampino–G. B. Pastine International Airport (LIRA) |
| Time | Latitude | Longitude | Altitude | Speed | Heading |
|---|---|---|---|---|---|
| 2026-05-06 10:17 | 52.44751 | 20.65337 | 337 ft | 0 kts | 206° |
| 2026-05-06 11:02 | 52.44751 | 20.65338 | 337 ft | 0 kts | 206° |
| 2026-05-06 11:02 | 52.44770 | 20.65356 | 332 ft | 4 kts | 221° |
| 2026-05-06 11:02 | 52.44787 | 20.65366 | 332 ft | 4 kts | 171° |
| 2026-05-06 11:03 | 52.44800 | 20.65352 | 333 ft | 4 kts | 85° |
| 2026-05-06 11:03 | 52.44797 | 20.65318 | 332 ft | 1 kts | 81° |
| 2026-05-06 11:03 | 52.44797 | 20.65317 | 332 ft | 0 kts | 81° |
| 2026-05-06 11:06 | 52.44799 | 20.65340 | 334 ft | 4 kts | 82° |
| 2026-05-06 11:06 | 52.44804 | 20.65401 | 335 ft | 7 kts | 82° |
| 2026-05-06 11:06 | 52.44813 | 20.65496 | 336 ft | 10 kts | 82° |
| 2026-05-06 11:06 | 52.44825 | 20.65623 | 335 ft | 13 kts | 82° |
| 2026-05-06 11:07 | 52.44838 | 20.65782 | 332 ft | 15 kts | 82° |
| 2026-05-06 11:07 | 52.44855 | 20.65970 | 336 ft | 18 kts | 80° |
| 2026-05-06 11:07 | 52.44876 | 20.66186 | 336 ft | 20 kts | 82° |
| 2026-05-06 11:07 | 52.44899 | 20.66428 | 337 ft | 23 kts | 81° |
| 2026-05-06 11:08 | 52.44923 | 20.66694 | 334 ft | 25 kts | 82° |
| 2026-05-06 11:08 | 52.44941 | 20.66881 | 335 ft | 25 kts | 81° |
| 2026-05-06 11:08 | 52.44966 | 20.67056 | 335 ft | 10 kts | 51° |
| 2026-05-06 11:08 | 52.45027 | 20.67076 | 337 ft | 9 kts | 352° |
| 2026-05-06 11:09 | 52.45090 | 20.67060 | 334 ft | 9 kts | 352° |
| 2026-05-06 11:09 | 52.45158 | 20.67044 | 337 ft | 11 kts | 352° |
| 2026-05-06 11:09 | 52.45237 | 20.67006 | 336 ft | 10 kts | 341° |
| 2026-05-06 11:09 | 52.45285 | 20.66974 | 338 ft | 7 kts | 290° |
| 2026-05-06 11:10 | 52.45273 | 20.66775 | 336 ft | 45 kts | 261° |
| 2026-05-06 11:10 | 52.45186 | 20.65868 | 337 ft | 114 kts | 261° |
| 2026-05-06 11:10 | 52.45027 | 20.64275 | 415 ft | 162 kts | 261° |
| 2026-05-06 11:10 | 52.44871 | 20.62370 | 1045 ft | 171 kts | 258° |
| 2026-05-06 11:11 | 52.44682 | 20.60489 | 1985 ft | 168 kts | 256° |
| 2026-05-06 11:11 | 52.44460 | 20.58468 | 2398 ft | 192 kts | 257° |
| 2026-05-06 11:11 | 52.44248 | 20.56297 | 3015 ft | 194 kts | 266° |
| 2026-05-06 11:11 | 52.44644 | 20.54050 | 3368 ft | 225 kts | 300° |
| 2026-05-06 11:12 | 52.45967 | 20.52326 | 3570 ft | 270 kts | 338° |
| 2026-05-06 11:12 | 52.47890 | 20.52004 | 4323 ft | 281 kts | 356° |
| 2026-05-06 11:12 | 52.49846 | 20.51984 | 5249 ft | 281 kts | 355° |
| 2026-05-06 11:12 | 52.51824 | 20.51879 | 6034 ft | 287 kts | 354° |
| 2026-05-06 11:13 | 52.53834 | 20.51719 | 6798 ft | 291 kts | 353° |
| 2026-05-06 11:13 | 52.55837 | 20.51544 | 7608 ft | 293 kts | 353° |
| 2026-05-06 11:13 | 52.57899 | 20.51647 | 8348 ft | 303 kts | 11° |
| 2026-05-06 11:13 | 52.59792 | 20.53209 | 9125 ft | 311 kts | 41° |
| 2026-05-06 11:14 | 52.61047 | 20.56094 | 9851 ft | 314 kts | 71° |
| 2026-05-06 11:14 | 52.61538 | 20.59652 | 10237 ft | 329 kts | 84° |
| 2026-05-06 11:14 | 52.61848 | 20.63534 | 10443 ft | 353 kts | 85° |
| 2026-05-06 11:14 | 52.62172 | 20.67617 | 10913 ft | 364 kts | 84° |
| 2026-05-06 11:15 | 52.62530 | 20.71771 | 11608 ft | 369 kts | 84° |
| 2026-05-06 11:15 | 52.62890 | 20.75977 | 12369 ft | 371 kts | 86° |
| 2026-05-06 11:15 | 52.63096 | 20.80215 | 13088 ft | 373 kts | 90° |
| 2026-05-06 11:15 | 52.63236 | 20.84501 | 13772 ft | 377 kts | 90° |
| 2026-05-06 11:16 | 52.63386 | 20.88839 | 14393 ft | 381 kts | 90° |
| 2026-05-06 11:16 | 52.63551 | 20.93216 | 15032 ft | 385 kts | 91° |
| 2026-05-06 11:16 | 52.63306 | 20.97503 | 15576 ft | 381 kts | 112° |
| 2026-05-06 11:16 | 52.62122 | 21.01316 | 16237 ft | 372 kts | 132° |
| 2026-05-06 11:17 | 52.60281 | 21.04236 | 16772 ft | 367 kts | 151° |
| 2026-05-06 11:17 | 52.57996 | 21.06032 | 17286 ft | 364 kts | 169° |
| 2026-05-06 11:17 | 52.55509 | 21.06604 | 17867 ft | 360 kts | 184° |
| 2026-05-06 11:17 | 52.53051 | 21.06005 | 18371 ft | 358 kts | 200° |
| 2026-05-06 11:18 | 52.50699 | 21.04642 | 18902 ft | 359 kts | 203° |
| 2026-05-06 11:18 | 52.48360 | 21.03155 | 19413 ft | 362 kts | 204° |
| 2026-05-06 11:18 | 52.46010 | 21.01627 | 19920 ft | 365 kts | 204° |
| 2026-05-06 11:18 | 52.43639 | 21.00089 | 20412 ft | 368 kts | 204° |
| 2026-05-06 11:19 | 52.41243 | 20.98551 | 20926 ft | 371 kts | 204° |
| 2026-05-06 11:19 | 52.38833 | 20.97018 | 21456 ft | 373 kts | 204° |
| 2026-05-06 11:19 | 52.36397 | 20.95481 | 21959 ft | 376 kts | 203° |
| 2026-05-06 11:19 | 52.33946 | 20.93945 | 22449 ft | 379 kts | 203° |
| 2026-05-06 11:20 | 52.31468 | 20.92398 | 22944 ft | 382 kts | 203° |
| 2026-05-06 11:20 | 52.28979 | 20.90849 | 23422 ft | 384 kts | 203° |
| 2026-05-06 11:20 | 52.26498 | 20.89308 | 23830 ft | 387 kts | 203° |
| 2026-05-06 11:20 | 52.23981 | 20.87746 | 24268 ft | 388 kts | 203° |
| 2026-05-06 11:21 | 52.21423 | 20.86162 | 24711 ft | 389 kts | 203° |
| 2026-05-06 11:21 | 52.18886 | 20.84593 | 25131 ft | 391 kts | 203° |
| 2026-05-06 11:21 | 52.16340 | 20.83019 | 25529 ft | 393 kts | 203° |
| 2026-05-06 11:21 | 52.13806 | 20.81455 | 25908 ft | 394 kts | 203° |
| 2026-05-06 11:22 | 52.11237 | 20.79872 | 26339 ft | 395 kts | 203° |
| 2026-05-06 11:22 | 52.08664 | 20.78288 | 26731 ft | 396 kts | 203° |
| 2026-05-06 11:22 | 52.06077 | 20.76696 | 27086 ft | 399 kts | 203° |
| 2026-05-06 11:22 | 52.03474 | 20.75097 | 27436 ft | 401 kts | 203° |
| 2026-05-06 11:23 | 52.00858 | 20.73493 | 27788 ft | 402 kts | 203° |
| 2026-05-06 11:23 | 51.98239 | 20.71888 | 28144 ft | 404 kts | 203° |
| 2026-05-06 11:23 | 51.95598 | 20.70272 | 28485 ft | 406 kts | 203° |
| 2026-05-06 11:23 | 51.92949 | 20.68653 | 28820 ft | 407 kts | 204° |
| 2026-05-06 11:24 | 51.90295 | 20.67033 | 29140 ft | 409 kts | 204° |
| 2026-05-06 11:24 | 51.87623 | 20.65404 | 29440 ft | 411 kts | 204° |
| 2026-05-06 11:24 | 51.84936 | 20.63769 | 29748 ft | 413 kts | 204° |
| 2026-05-06 11:24 | 51.82242 | 20.62130 | 30019 ft | 414 kts | 204° |
| 2026-05-06 11:25 | 51.79541 | 20.60491 | 30292 ft | 415 kts | 203° |
| 2026-05-06 11:25 | 51.76878 | 20.58877 | 30656 ft | 413 kts | 203° |
| 2026-05-06 11:25 | 51.74197 | 20.57255 | 31061 ft | 410 kts | 203° |
| 2026-05-06 11:25 | 51.71530 | 20.55642 | 31451 ft | 408 kts | 203° |
| 2026-05-06 11:26 | 51.68870 | 20.54035 | 31771 ft | 408 kts | 203° |
| 2026-05-06 11:26 | 51.66215 | 20.52432 | 32093 ft | 407 kts | 203° |
| 2026-05-06 11:26 | 51.63568 | 20.50837 | 32447 ft | 405 kts | 203° |
| 2026-05-06 11:26 | 51.60929 | 20.49249 | 32810 ft | 403 kts | 203° |
| 2026-05-06 11:27 | 51.58302 | 20.47669 | 33134 ft | 402 kts | 203° |
| 2026-05-06 11:27 | 51.55687 | 20.46099 | 33437 ft | 402 kts | 202° |
| 2026-05-06 11:27 | 51.53066 | 20.44528 | 33754 ft | 400 kts | 202° |
| 2026-05-06 11:27 | 51.50460 | 20.42967 | 34021 ft | 400 kts | 202° |
| 2026-05-06 11:28 | 51.47849 | 20.41406 | 34210 ft | 401 kts | 202° |
| 2026-05-06 11:28 | 51.45227 | 20.39840 | 34376 ft | 402 kts | 203° |
| 2026-05-06 11:28 | 51.42597 | 20.38270 | 34525 ft | 404 kts | 203° |
| 2026-05-06 11:28 | 51.40000 | 20.36721 | 34703 ft | 405 kts | 203° |
| 2026-05-06 11:29 | 51.37389 | 20.35041 | 34886 ft | 404 kts | 206° |
| 2026-05-06 11:29 | 51.34828 | 20.33176 | 35051 ft | 405 kts | 207° |
| 2026-05-06 11:29 | 51.32242 | 20.31235 | 35232 ft | 406 kts | 207° |
| 2026-05-06 11:29 | 51.29719 | 20.29329 | 35426 ft | 406 kts | 207° |
| 2026-05-06 11:30 | 51.27163 | 20.27404 | 35626 ft | 406 kts | 207° |
| 2026-05-06 11:30 | 51.24600 | 20.25484 | 35775 ft | 407 kts | 207° |
| 2026-05-06 11:30 | 51.22028 | 20.23568 | 35781 ft | 410 kts | 207° |
| 2026-05-06 11:31 | 51.16849 | 20.19734 | 35800 ft | 409 kts | 207° |
| 2026-05-06 11:31 | 51.11703 | 20.15944 | 35800 ft | 406 kts | 207° |
| 2026-05-06 11:32 | 51.06587 | 20.12188 | 35802 ft | 404 kts | 207° |
| 2026-05-06 11:32 | 51.01491 | 20.08454 | 35801 ft | 402 kts | 207° |
| 2026-05-06 11:33 | 50.96564 | 20.04853 | 35804 ft | 402 kts | 207° |
| 2026-05-06 11:33 | 50.91516 | 20.01170 | 35817 ft | 403 kts | 207° |
| 2026-05-06 11:34 | 50.86488 | 19.97512 | 35813 ft | 404 kts | 207° |
| 2026-05-06 11:34 | 50.81368 | 19.93795 | 35818 ft | 406 kts | 207° |
| 2026-05-06 11:35 | 50.76222 | 19.90070 | 35816 ft | 408 kts | 207° |
| 2026-05-06 11:35 | 50.71054 | 19.86337 | 35818 ft | 409 kts | 207° |
| 2026-05-06 11:36 | 50.65860 | 19.82595 | 35821 ft | 411 kts | 207° |
| 2026-05-06 11:36 | 50.60646 | 19.78849 | 35822 ft | 412 kts | 207° |
| 2026-05-06 11:37 | 50.55425 | 19.75106 | 35823 ft | 412 kts | 207° |
| 2026-05-06 11:37 | 50.50241 | 19.71399 | 35827 ft | 411 kts | 207° |
| 2026-05-06 11:38 | 50.45035 | 19.67685 | 35828 ft | 411 kts | 207° |
| 2026-05-06 11:38 | 50.39802 | 19.63961 | 35825 ft | 409 kts | 207° |
| 2026-05-06 11:39 | 50.34648 | 19.60302 | 35823 ft | 408 kts | 207° |
| 2026-05-06 11:39 | 50.29482 | 19.56642 | 35830 ft | 407 kts | 207° |
| 2026-05-06 11:40 | 50.24321 | 19.52995 | 35827 ft | 406 kts | 207° |
| 2026-05-06 11:40 | 50.19169 | 19.49363 | 35830 ft | 406 kts | 207° |
| 2026-05-06 11:41 | 50.14019 | 19.45741 | 35830 ft | 406 kts | 207° |
| 2026-05-06 11:41 | 50.08872 | 19.42130 | 35837 ft | 406 kts | 207° |
| 2026-05-06 11:42 | 50.03724 | 19.38526 | 35846 ft | 406 kts | 207° |
| 2026-05-06 11:42 | 49.98573 | 19.34929 | 35844 ft | 407 kts | 207° |
| 2026-05-06 11:43 | 49.93399 | 19.31325 | 35841 ft | 408 kts | 207° |
| 2026-05-06 11:43 | 49.88216 | 19.27723 | 35846 ft | 408 kts | 207° |
| 2026-05-06 11:44 | 49.80394 | 19.22303 | 35865 ft | 409 kts | 207° |
| 2026-05-06 11:44 | 49.75198 | 19.18713 | 35858 ft | 409 kts | 207° |
| 2026-05-06 11:45 | 49.70030 | 19.15151 | 35851 ft | 409 kts | 207° |
| 2026-05-06 11:45 | 49.64834 | 19.11580 | 35860 ft | 408 kts | 207° |
| 2026-05-06 11:46 | 49.59638 | 19.08016 | 35855 ft | 408 kts | 206° |
| 2026-05-06 11:46 | 49.54453 | 19.04466 | 35861 ft | 408 kts | 206° |
| 2026-05-06 11:47 | 49.49265 | 19.00927 | 35864 ft | 407 kts | 206° |
| 2026-05-06 11:47 | 49.44185 | 18.97467 | 35870 ft | 406 kts | 206° |
| 2026-05-06 11:48 | 49.39007 | 18.93974 | 35878 ft | 406 kts | 206° |
| 2026-05-06 11:48 | 49.34700 | 18.91088 | 35883 ft | 406 kts | 206° |
| 2026-05-06 11:49 | 49.29512 | 18.87621 | 35880 ft | 406 kts | 206° |
| 2026-05-06 11:49 | 49.24326 | 18.84162 | 35882 ft | 407 kts | 206° |
| 2026-05-06 11:50 | 49.19136 | 18.80718 | 35877 ft | 406 kts | 206° |
| 2026-05-06 11:50 | 49.13950 | 18.77266 | 35879 ft | 407 kts | 206° |
| 2026-05-06 11:51 | 49.08750 | 18.73815 | 35867 ft | 408 kts | 206° |
| 2026-05-06 11:51 | 49.03543 | 18.70371 | 35874 ft | 408 kts | 206° |
| 2026-05-06 11:52 | 48.98367 | 18.66873 | 35884 ft | 408 kts | 207° |
| 2026-05-06 11:52 | 48.93160 | 18.63425 | 35872 ft | 408 kts | 206° |
| 2026-05-06 11:53 | 48.87937 | 18.60057 | 35877 ft | 408 kts | 206° |
| 2026-05-06 11:53 | 48.82750 | 18.56689 | 35888 ft | 408 kts | 206° |
| 2026-05-06 11:54 | 48.77503 | 18.53267 | 35887 ft | 408 kts | 206° |
| 2026-05-06 11:54 | 48.72289 | 18.49867 | 35893 ft | 408 kts | 206° |
| 2026-05-06 11:55 | 48.67100 | 18.46489 | 35886 ft | 409 kts | 206° |
| 2026-05-06 11:55 | 48.61869 | 18.43093 | 35895 ft | 409 kts | 206° |
| 2026-05-06 11:56 | 48.56638 | 18.39702 | 35897 ft | 409 kts | 206° |
| 2026-05-06 11:56 | 48.51394 | 18.36312 | 35886 ft | 410 kts | 206° |
| 2026-05-06 11:57 | 48.46147 | 18.32928 | 35889 ft | 409 kts | 206° |
| 2026-05-06 11:57 | 48.40906 | 18.29556 | 35889 ft | 409 kts | 206° |
| 2026-05-06 11:58 | 48.35663 | 18.26190 | 35886 ft | 410 kts | 206° |
| 2026-05-06 11:58 | 48.30452 | 18.22851 | 35889 ft | 410 kts | 206° |
| 2026-05-06 11:59 | 48.25205 | 18.19497 | 35881 ft | 409 kts | 206° |
| 2026-05-06 11:59 | 48.19963 | 18.16154 | 35886 ft | 409 kts | 206° |
| 2026-05-06 12:00 | 48.14731 | 18.12825 | 35891 ft | 408 kts | 206° |
| 2026-05-06 12:00 | 48.09505 | 18.09506 | 35888 ft | 408 kts | 206° |
| 2026-05-06 12:01 | 48.04288 | 18.06201 | 35881 ft | 407 kts | 207° |
| 2026-05-06 12:01 | 47.99089 | 18.02914 | 35884 ft | 406 kts | 207° |
| 2026-05-06 12:02 | 47.93957 | 17.99677 | 35885 ft | 406 kts | 207° |
| 2026-05-06 12:02 | 47.88763 | 17.96408 | 35885 ft | 405 kts | 207° |
| 2026-05-06 12:03 | 47.83601 | 17.93165 | 35882 ft | 405 kts | 206° |
| 2026-05-06 12:03 | 47.78408 | 17.89911 | 35886 ft | 405 kts | 206° |
| 2026-05-06 12:04 | 47.73213 | 17.86662 | 35888 ft | 405 kts | 206° |
| 2026-05-06 12:04 | 47.68007 | 17.83414 | 35883 ft | 406 kts | 206° |
| 2026-05-06 12:05 | 47.62791 | 17.80166 | 35895 ft | 407 kts | 206° |
| 2026-05-06 12:05 | 47.57563 | 17.76918 | 35890 ft | 408 kts | 206° |
| 2026-05-06 12:06 | 47.52322 | 17.73669 | 35882 ft | 408 kts | 206° |
| 2026-05-06 12:06 | 47.47070 | 17.70420 | 35885 ft | 409 kts | 206° |
| 2026-05-06 12:07 | 47.41809 | 17.67173 | 35887 ft | 410 kts | 206° |
| 2026-05-06 12:07 | 47.36537 | 17.63926 | 35888 ft | 410 kts | 206° |
| 2026-05-06 12:08 | 47.31267 | 17.60688 | 35877 ft | 410 kts | 206° |
| 2026-05-06 12:08 | 47.26038 | 17.57482 | 35877 ft | 410 kts | 206° |
| 2026-05-06 12:09 | 47.20768 | 17.54257 | 35881 ft | 410 kts | 206° |
| 2026-05-06 12:09 | 47.15503 | 17.51042 | 35884 ft | 409 kts | 206° |
| 2026-05-06 12:10 | 47.10246 | 17.47839 | 35884 ft | 409 kts | 206° |
| 2026-05-06 12:10 | 47.04988 | 17.44643 | 35876 ft | 408 kts | 207° |
| 2026-05-06 12:11 | 46.99753 | 17.41467 | 35885 ft | 408 kts | 207° |
| 2026-05-06 12:11 | 46.94506 | 17.38290 | 35893 ft | 407 kts | 207° |
| 2026-05-06 12:12 | 46.89261 | 17.35122 | 35891 ft | 407 kts | 207° |
| 2026-05-06 12:12 | 46.84024 | 17.31965 | 35903 ft | 407 kts | 207° |
| 2026-05-06 12:13 | 46.78789 | 17.28816 | 35908 ft | 407 kts | 207° |
| 2026-05-06 12:13 | 46.73576 | 17.25686 | 35908 ft | 408 kts | 207° |
| 2026-05-06 12:14 | 46.68327 | 17.22542 | 35911 ft | 408 kts | 207° |
| 2026-05-06 12:14 | 46.63080 | 17.19406 | 35911 ft | 408 kts | 207° |
| 2026-05-06 12:15 | 46.57830 | 17.16275 | 35911 ft | 408 kts | 207° |
| 2026-05-06 12:15 | 46.52569 | 17.13144 | 35909 ft | 408 kts | 207° |
| 2026-05-06 12:16 | 46.47308 | 17.10019 | 35903 ft | 408 kts | 206° |
| 2026-05-06 12:16 | 46.42090 | 17.06927 | 35913 ft | 408 kts | 206° |
| 2026-05-06 12:17 | 46.36834 | 17.03819 | 35907 ft | 408 kts | 206° |
| 2026-05-06 12:17 | 46.31569 | 17.00713 | 35917 ft | 409 kts | 206° |
| 2026-05-06 12:18 | 46.26372 | 16.97652 | 35911 ft | 409 kts | 206° |
| 2026-05-06 12:18 | 46.21216 | 16.94265 | 35920 ft | 406 kts | 212° |
| 2026-05-06 12:19 | 46.16254 | 16.90366 | 35919 ft | 406 kts | 213° |
| 2026-05-06 12:19 | 46.11302 | 16.86441 | 35917 ft | 405 kts | 212° |
| 2026-05-06 12:20 | 46.06347 | 16.82569 | 35924 ft | 405 kts | 212° |
| 2026-05-06 12:20 | 46.01386 | 16.78730 | 35922 ft | 405 kts | 212° |
| 2026-05-06 12:21 | 45.96487 | 16.74956 | 35921 ft | 404 kts | 212° |
| 2026-05-06 12:21 | 45.91520 | 16.71139 | 35943 ft | 407 kts | 212° |
| 2026-05-06 12:22 | 45.86495 | 16.67283 | 36189 ft | 411 kts | 211° |
| 2026-05-06 12:22 | 45.84012 | 16.65383 | 36442 ft | 409 kts | 211° |
| 2026-05-06 12:22 | 45.81504 | 16.63466 | 36699 ft | 408 kts | 211° |
| 2026-05-06 12:23 | 45.78999 | 16.61552 | 36880 ft | 408 kts | 211° |
| 2026-05-06 12:23 | 45.76492 | 16.59638 | 37056 ft | 408 kts | 211° |
| 2026-05-06 12:23 | 45.73977 | 16.57720 | 37232 ft | 408 kts | 211° |
| 2026-05-06 12:23 | 45.72316 | 16.56454 | 37325 ft | 409 kts | 211° |
| 2026-05-06 12:24 | 45.68950 | 16.53891 | 37559 ft | 409 kts | 211° |
| 2026-05-06 12:24 | 45.66442 | 16.51985 | 37762 ft | 408 kts | 211° |
| 2026-05-06 12:24 | 45.63928 | 16.50077 | 37943 ft | 408 kts | 211° |
| 2026-05-06 12:24 | 45.61422 | 16.48175 | 38111 ft | 408 kts | 211° |
| 2026-05-06 12:25 | 45.58914 | 16.46274 | 38273 ft | 408 kts | 211° |
| 2026-05-06 12:25 | 45.56405 | 16.44374 | 38436 ft | 408 kts | 211° |
| 2026-05-06 12:25 | 45.53928 | 16.42501 | 38589 ft | 408 kts | 211° |
| 2026-05-06 12:25 | 45.51394 | 16.40585 | 38698 ft | 408 kts | 211° |
| 2026-05-06 12:26 | 45.48912 | 16.38712 | 38799 ft | 408 kts | 211° |
| 2026-05-06 12:26 | 45.46400 | 16.36818 | 38884 ft | 408 kts | 211° |
| 2026-05-06 12:26 | 45.41363 | 16.33024 | 38922 ft | 411 kts | 211° |
| 2026-05-06 12:27 | 45.36307 | 16.29225 | 38932 ft | 412 kts | 211° |
| 2026-05-06 12:27 | 45.31230 | 16.25419 | 38931 ft | 412 kts | 211° |
| 2026-05-06 12:28 | 45.26151 | 16.21618 | 38925 ft | 412 kts | 211° |
| 2026-05-06 12:28 | 45.21108 | 16.17852 | 38928 ft | 411 kts | 211° |
| 2026-05-06 12:29 | 45.16058 | 16.14088 | 38932 ft | 409 kts | 211° |
| 2026-05-06 12:29 | 45.11027 | 16.10347 | 38926 ft | 407 kts | 211° |
| 2026-05-06 12:30 | 45.06014 | 16.06626 | 38932 ft | 405 kts | 211° |
| 2026-05-06 12:30 | 45.01038 | 16.02939 | 38935 ft | 402 kts | 211° |
| 2026-05-06 12:31 | 44.96174 | 15.99343 | 38927 ft | 400 kts | 211° |
| 2026-05-06 12:31 | 44.91249 | 15.95708 | 38935 ft | 398 kts | 211° |
| 2026-05-06 12:32 | 44.86345 | 15.92096 | 38941 ft | 397 kts | 210° |
| 2026-05-06 12:32 | 44.81493 | 15.88529 | 38957 ft | 395 kts | 210° |
| 2026-05-06 12:33 | 44.76614 | 15.84949 | 38951 ft | 395 kts | 210° |
| 2026-05-06 12:33 | 44.71740 | 15.81379 | 38959 ft | 394 kts | 210° |
| 2026-05-06 12:34 | 44.66863 | 15.77812 | 38968 ft | 395 kts | 210° |
| 2026-05-06 12:34 | 44.61977 | 15.74249 | 38968 ft | 396 kts | 210° |
| 2026-05-06 12:35 | 44.57071 | 15.70677 | 38971 ft | 398 kts | 210° |
| 2026-05-06 12:35 | 44.52979 | 15.67703 | 38980 ft | 399 kts | 210° |
| 2026-05-06 12:36 | 44.48039 | 15.64118 | 38977 ft | 400 kts | 210° |
| 2026-05-06 12:36 | 44.42274 | 15.59945 | 38987 ft | 402 kts | 210° |
| 2026-05-06 12:37 | 44.38103 | 15.56931 | 38973 ft | 403 kts | 210° |
| 2026-05-06 12:37 | 44.33131 | 15.53345 | 38985 ft | 402 kts | 210° |
| 2026-05-06 12:38 | 44.28154 | 15.49762 | 38985 ft | 402 kts | 210° |
| 2026-05-06 12:38 | 44.23175 | 15.46184 | 38998 ft | 403 kts | 209° |
| 2026-05-06 12:39 | 44.18210 | 15.42624 | 38993 ft | 404 kts | 209° |
| 2026-05-06 12:39 | 44.13202 | 15.39041 | 38990 ft | 405 kts | 209° |